createdAt,value
2022-09-17T00:00:59.195Z,8.43
2022-09-17T00:05:02.281Z,9.23
2022-09-17T00:09:07.527Z,8.85
2022-09-17T00:13:11.609Z,7.68
2022-09-17T00:17:14.750Z,6.93
2022-09-17T00:21:19.496Z,5.97
2022-09-17T00:25:22.999Z,6.72
2022-09-17T00:29:25.956Z,5.28
2022-09-17T00:33:28.834Z,5.35
2022-09-17T00:37:31.957Z,5.32
2022-09-17T00:41:38.967Z,5.10
2022-09-17T00:45:42.276Z,5.05
2022-09-17T00:49:49.450Z,5.50
2022-09-17T00:53:59.061Z,6.32
2022-09-17T00:58:05.870Z,6.00
2022-09-17T01:02:09.276Z,5.97
2022-09-17T01:06:26.323Z,5.30
2022-09-17T01:10:38.359Z,5.80
2022-09-17T01:15:08.768Z,5.80
2022-09-17T01:19:32.908Z,5.30
2022-09-17T01:24:04.803Z,5.35
2022-09-17T01:28:45.404Z,6.15
2022-09-17T01:32:54.382Z,4.97
2022-09-17T01:37:15.237Z,5.07
2022-09-17T01:41:28.841Z,4.78
2022-09-17T01:45:57.310Z,5.78
2022-09-17T01:50:17.401Z,6.10
2022-09-17T01:54:29.071Z,6.15
2022-09-17T01:58:41.564Z,5.95
2022-09-17T02:03:08.756Z,5.97
2022-09-17T02:07:20.613Z,6.32
2022-09-17T02:11:24.025Z,5.78
2022-09-17T02:15:33.744Z,7.65
2022-09-17T02:19:40.310Z,6.63
2022-09-17T02:24:11.787Z,6.20
2022-09-17T02:28:37.369Z,7.15
2022-09-17T02:32:40.629Z,5.60
2022-09-17T02:36:46.486Z,6.60
2022-09-17T02:41:00.362Z,6.18
2022-09-17T02:45:10.780Z,7.18
2022-09-17T02:49:19.985Z,6.72
2022-09-17T02:53:45.208Z,6.80
2022-09-17T02:58:09.757Z,6.90
2022-09-17T03:02:28.255Z,6.93
2022-09-17T03:06:31.225Z,8.00
2022-09-17T03:10:34.226Z,6.70
2022-09-17T03:14:37.369Z,7.63
2022-09-17T03:18:40.725Z,7.22
2022-09-17T03:22:43.841Z,6.78
2022-09-17T03:26:49.581Z,7.35
2022-09-17T03:30:55.876Z,6.90
2022-09-17T03:34:59.054Z,7.03
2022-09-17T03:39:02.479Z,6.22
2022-09-17T03:43:06.500Z,6.75
2022-09-17T03:47:09.465Z,7.00
2022-09-17T03:51:12.747Z,8.57
2022-09-17T03:55:18.941Z,6.80
2022-09-17T03:59:27.337Z,7.53
2022-09-17T04:03:30.754Z,6.82
2022-09-17T04:07:33.741Z,7.80
2022-09-17T04:11:36.576Z,8.27
2022-09-17T04:15:40.036Z,8.35
2022-09-17T04:19:42.968Z,8.25
2022-09-17T04:23:45.798Z,7.85
2022-09-17T04:27:48.867Z,8.85
2022-09-17T04:31:51.744Z,7.90
2022-09-17T04:35:54.573Z,7.47
2022-09-17T04:40:02.150Z,7.53
2022-09-17T04:44:18.597Z,9.57
2022-09-17T04:49:16.031Z,7.80
2022-09-17T04:54:17.235Z,8.27
2022-09-17T04:58:54.593Z,8.07
2022-09-17T05:03:27.074Z,8.30
2022-09-17T05:17:52.135Z,7.53
2022-09-17T05:22:19.522Z,9.30
2022-09-17T05:31:21.805Z,9.02
2022-09-17T05:35:28.132Z,9.75
2022-09-17T05:39:33.559Z,8.70
2022-09-17T05:43:45.172Z,9.85
2022-09-17T05:48:00.171Z,9.20
2022-09-17T05:52:03.955Z,9.50
2022-09-17T05:56:06.977Z,8.68
2022-09-17T06:00:11.984Z,9.57
2022-09-17T06:04:20.517Z,9.15
2022-09-17T06:08:46.959Z,10.60
2022-09-17T06:13:52.527Z,10.65
2022-09-17T06:18:14.661Z,11.70
2022-09-17T06:22:46.369Z,10.88
2022-09-17T06:27:10.725Z,10.68
2022-09-17T06:32:23.909Z,11.20
2022-09-17T06:36:35.887Z,10.07
2022-09-17T06:40:43.254Z,11.85
2022-09-17T06:45:47.914Z,9.80
2022-09-17T06:51:03.077Z,10.43
2022-09-17T07:00:54.378Z,14.57
2022-09-17T07:05:01.246Z,13.68
2022-09-17T07:09:12.236Z,12.18
2022-09-17T07:13:15.650Z,13.95
2022-09-17T07:17:21.415Z,14.87
2022-09-17T07:21:28.319Z,15.50
2022-09-17T07:25:49.431Z,13.80
2022-09-17T07:30:07.934Z,13.65
2022-09-17T07:34:12.850Z,12.57
2022-09-17T07:38:45.054Z,11.15
2022-09-17T07:52:19.649Z,10.60
2022-09-17T07:57:23.225Z,11.82
2022-09-17T08:07:13.856Z,12.57
2022-09-17T08:11:54.327Z,11.80
2022-09-17T08:15:59.228Z,8.52
2022-09-17T08:50:49.080Z,8.33
2022-09-17T09:00:46.110Z,12.63
2022-09-17T09:05:13.523Z,8.60
2022-09-17T09:09:21.244Z,8.00
2022-09-17T09:14:18.290Z,9.18
2022-09-17T09:18:30.839Z,8.45
2022-09-17T09:22:52.941Z,7.70
2022-09-17T09:27:04.084Z,7.10
2022-09-17T09:31:28.628Z,4.25
2022-09-17T09:35:34.612Z,1.40
2022-09-17T09:39:46.052Z,1.10
2022-09-17T09:44:23.063Z,1.27
2022-09-17T09:49:15.293Z,1.38
2022-09-17T09:54:08.162Z,1.48
2022-09-17T10:04:27.763Z,2.30
2022-09-17T10:14:07.979Z,1.20
2022-09-17T10:23:29.991Z,0.90
2022-09-17T10:56:45.136Z,0.77
2022-09-17T11:01:20.421Z,0.67
2022-09-17T11:07:07.115Z,0.70
2022-09-17T11:12:28.905Z,0.70
2022-09-17T11:17:26.137Z,0.65
2022-09-17T11:22:24.512Z,0.52
2022-09-17T11:27:12.621Z,0.50
2022-09-17T14:01:57.462Z,1.48
2022-09-17T14:06:05.607Z,1.63
2022-09-17T14:10:15.050Z,1.42
2022-09-17T14:14:46.881Z,1.48
2022-09-17T14:19:16.908Z,1.33
2022-09-17T14:23:20.607Z,1.83
2022-09-17T14:28:00.731Z,1.45
2022-09-17T14:37:29.581Z,1.27
2022-09-17T15:10:49.444Z,1.00
2022-09-17T15:32:20.747Z,0.88
2022-09-17T15:36:38.127Z,1.00
2022-09-17T15:41:58.902Z,0.95
2022-09-17T18:20:35.014Z,0.75
2022-09-17T18:29:24.693Z,0.90
2022-09-17T18:33:30.703Z,1.20
2022-09-17T18:37:43.855Z,1.08
2022-09-17T18:42:42.614Z,0.90
2022-09-17T18:47:19.606Z,0.93
2022-09-17T18:51:33.198Z,1.10
2022-09-17T18:55:54.765Z,1.30
2022-09-17T19:00:15.882Z,0.80
2022-09-17T19:04:42.928Z,0.88
2022-09-17T19:14:01.698Z,1.20
2022-09-17T19:18:18.627Z,1.08
2022-09-17T19:22:42.100Z,0.88
2022-09-17T19:27:16.847Z,1.08
2022-09-17T19:31:31.817Z,0.80
2022-09-17T19:36:00.308Z,0.82
2022-09-17T19:40:27.902Z,0.95
2022-09-17T19:44:40.518Z,0.80
2022-09-17T19:48:56.211Z,0.90
2022-09-17T19:53:07.734Z,1.00
2022-09-17T19:57:14.708Z,0.88
2022-09-17T20:01:24.107Z,1.88
2022-09-17T20:05:27.668Z,0.90
2022-09-17T20:09:31.924Z,1.15
2022-09-17T20:13:37.662Z,1.33
2022-09-17T20:17:44.565Z,1.40
2022-09-17T20:22:07.104Z,1.63
2022-09-17T20:26:23.164Z,1.55
2022-09-17T20:30:26.819Z,1.50
2022-09-17T20:34:34.651Z,2.17
2022-09-17T20:43:04.505Z,2.75
2022-09-17T20:47:20.148Z,1.85
2022-09-17T20:51:40.509Z,2.30
2022-09-17T20:56:05.961Z,2.22
2022-09-17T21:00:21.520Z,2.70
2022-09-17T21:04:27.273Z,2.30
2022-09-17T21:08:43.679Z,2.45
2022-09-17T21:13:16.068Z,2.60
2022-09-17T21:17:36.660Z,2.33
2022-09-17T21:22:17.095Z,1.60
2022-09-17T21:26:49.402Z,1.38
2022-09-17T21:31:11.433Z,1.00
2022-09-17T21:35:42.538Z,0.90
2022-09-17T21:39:45.636Z,1.20
2022-09-17T21:44:01.581Z,0.80
2022-09-17T21:48:18.162Z,0.90
2022-09-17T21:52:21.105Z,0.70
2022-09-17T21:56:34.090Z,0.93
2022-09-17T22:00:43.194Z,0.90
2022-09-17T22:04:53.500Z,1.10
2022-09-17T22:08:59.085Z,0.88
2022-09-17T22:13:05.119Z,1.35
2022-09-17T22:17:07.954Z,2.22
2022-09-17T22:21:21.142Z,2.10
2022-09-17T22:25:24.079Z,1.73
2022-09-17T22:29:28.559Z,2.67
2022-09-17T22:33:36.463Z,1.40
2022-09-17T22:37:39.679Z,1.52
2022-09-17T22:41:45.873Z,1.10
2022-09-17T22:45:49.033Z,1.85
2022-09-17T22:49:54.521Z,1.40
2022-09-17T22:53:59.133Z,1.85
2022-09-17T22:58:01.989Z,1.95
2022-09-17T23:02:04.953Z,1.80
2022-09-17T23:06:10.836Z,2.00
2022-09-17T23:10:13.717Z,1.45
2022-09-17T23:14:17.262Z,1.67
2022-09-17T23:18:20.511Z,1.75
2022-09-17T23:22:23.535Z,1.92
2022-09-17T23:26:36.816Z,1.67
2022-09-17T23:30:39.699Z,1.38
2022-09-17T23:34:42.768Z,1.30
2022-09-17T23:38:47.427Z,1.38
2022-09-17T23:42:50.530Z,1.30
2022-09-17T23:46:53.538Z,1.35
2022-09-17T23:50:56.506Z,1.42
2022-09-17T23:54:59.447Z,1.40
2022-09-17T23:59:02.750Z,1.73
